Peshawar International Airport
OPPS : now visible

Airfield :











YOU CAN JOIN US ON...

 
LOGIN :

Register | Disclaimer

   EN    FR    IT 

 









Legend :    VFR   Marginal VFR   IFR   Intensive IFR   Very Intensive IFR
Visi :
Ceiling :
>= 8 km
>= 3000ft
5 to 8 km
1000 to 3000 ft
1500m to 5 km
500 to 1000 ft
800 to 1500m
200 to 500 ft
< 800m
< 200 ft
Symbols :   Thunderstorms  Fog  Heavy snow  Heavy precipitations  Wind > 20 kt






- Airport Elevation : 1158 ft
- IATA code : PEW


OPPS - Peshawar International

CURRENT METAR :
  • 211030Z 05004KT 4000 DZ SCT012 SCT030 BKN070 10/07 Q1022

EXPIRED METARs :
  • 211000Z 05004KT 4000 DZ SCT012 SCT030 BKN070 10/07 Q1022
  • 210930Z 05004KT 4000 RA SCT012 SCT030 BKN070 11/08 Q1022
  • 210900Z 05004KT 4000 RA SCT012 SCT030 BKN070 11/08 Q1022
  • 210830Z 05004KT 4000 DZ SCT030 BKN070 11/08 Q1022
  • 210800Z 05004KT 4000 DZ SCT030 BKN070 11/08 Q1022

TAF TAF OPPS
Valid from the 21 at 06:00 until the 22 at 12:00 UTC


210404Z 2106/2212 33015KT 4000 -RA SCT015 SCT040 BKN080
TEMPO 2112/2117 3000 DZ
BECMG 2117/2119 33010KT 4000 HZ SCT040 BKN100
BECMG 2203/2205 21015KT 5000 HZ FEW040 SCT100



MET'MAP, your aeronautical weather chart ! - Copyright ORBIFLY December 2007 - Disclaimer

ORBIFLY MET'MAP TEAM :

Programming & Development : Alexandra Zaïnal
Concept & original design : Baudouin d'Aumeries
Assistance for programming : Marc-Olivier Méhu
Technical & hardware support : Manuel Goepfert

Contact : metmap@orbifly.com




SOURCES & CREDITS :

   NOAA       Earth
Advisory